x

Point Arguello, Ca (ptgc1) Weather Station

7:00am - Mon 29th May 2017 All times are PDT. -7 hours from GMT.

  • Wind
    34mph, 36mph gusts
  • Air Temp 51°f
  • Sea Pressure 1013.8mb
  • Point Arguello, Ca
  • Point Arguello, Ca

More Historic Weather Station data

Upgrade to MSW Pro to gain access to the past 30 days of data for over 8000 Wavebouys and Weather Stations around the globe.

Join Pro

Comparision Forecast

View Surf forecast
   
Mon 05/29 7:00am 34 36 mph 1013.8mb 51f
6:00am 34 37 mph 1013.8mb 51f
5:00am 34 36 mph 1013.8mb 51f
4:00am 31 34 mph 1014.2mb 52f
3:00am 30 33 mph 1014.6mb 52f
2:00am 33 34 mph 1015mb 52f
1:00am 34 37 mph 1015.2mb 52f
12:00am 34 36 mph 1015.8mb 52f
Sun 05/28 11:00pm 33 34 mph 1016.3mb 53f
10:00pm 29 31 mph 1016.7mb 53f
9:00pm 28 30 mph 1016.4mb 53f
8:00pm 28 30 mph 1016.2mb 53f
7:00pm 28 30 mph 1015.9mb 54f
6:00pm 28 29 mph 1016.4mb 53f
5:00pm 24 25 mph 1016.9mb 54f
4:00pm 24 25 mph 1017.4mb 54f
3:00pm 21 22 mph 1017.8mb 54f
2:00pm 20 21 mph 1018.2mb 53f
1:00pm 20 21 mph 1018.3mb 53f
12:00pm 21 21 mph 1018.4mb 53f
11:00am 22 23 mph 1018.3mb 53f
10:00am 20 20 mph 1018.5mb 53f
9:00am 24 25 mph 1018.2mb 53f
8:00am 24 26 mph 1017.6mb 53f
7:00am 28 30 mph 1017.2mb 53f
6:00am 26 29 mph 1017.3mb 53f
5:00am 26 29 mph 1016.9mb 53f
4:00am 25 29 mph 1017mb 54f
3:00am 21 23 mph 1017.4mb 54f
2:00am 22 23 mph 1017.9mb 54f
1:00am 22 24 mph 1018.2mb 54f
12:00am 22 23 mph 1018.4mb 55f
Sat 05/27 11:00pm 21 22 mph 1018.8mb 55f
10:00pm 22 23 mph 1018.6mb 55f
9:00pm 22 24 mph 1018.4mb 55f
8:00pm 21 22 mph 1018.5mb 56f
7:00pm 17 18 mph 1018.6mb 56f
6:00pm 15 16 mph 1018.8mb 56f
5:00pm 16 17 mph 1019mb 56f
4:00pm 14 15 mph 1019.1mb 56f
3:00pm 13 13 mph 1019.5mb 56f
2:00pm 13 14 mph 1019.6mb 55f
1:00pm 13 14 mph 1019.8mb 55f
12:00pm 15 15 mph 1020mb 55f
11:00am 16 17 mph 1019.7mb 54f
10:00am 17 18 mph 1019.6mb 55f
9:00am 17 18 mph 1019.3mb 55f
8:00am 16 17 mph 1018.8mb 55f
7:00am 13 14 mph 1018.2mb 54f
6:00am 13 15 mph 1017.7mb 53f
5:00am 11 13 mph 1017.3mb 53f
4:00am 11 14 mph 1017.3mb 53f
3:00am 11 14 mph 1017.5mb 54f
2:00am 16 17 mph 1017.6mb 54f
1:00am 13 14 mph 1017.8mb 54f
12:00am 10 11 mph 1017.8mb 55f
Fri 05/26 11:00pm 11 14 mph 1017.9mb 54f
10:00pm 10 11 mph 1017.7mb 54f
9:00pm 10 11 mph 1017.2mb 55f
8:00pm 11 13 mph 1016.9mb 55f
7:00pm 13 13 mph 1016.6mb 55f
6:00pm 10 10 mph 1016.7mb 56f
5:00pm 10 10 mph 1016.5mb 56f
4:00pm 8 9 mph 1016.7mb 57f
3:00pm 6 7 mph 1016.9mb 57f
2:00pm 6 7 mph 1016.9mb 57f
1:00pm 3 5 mph 1017.1mb 58f
12:00pm 5 5 mph 1016.7mb 55f
11:00am 7 7 mph 1016.4mb 54f
10:00am 7 7 mph 1016.1mb 54f
9:00am 6 6 mph 1015.7mb 54f
8:00am 5 5 mph 1015.1mb 54f
7:00am  -  0 mph 1014.6mb 54f
6:00am 2 2 mph 1014.1mb 54f
5:00am 2 3 mph 1013.8mb 54f
4:00am  -  0 mph 1013.7mb 55f
3:00am 2 3 mph 1013.5mb 55f
2:00am 1 2 mph 1013.4mb 55f
1:00am 5 6 mph 1013.4mb 55f
12:00am 5 5 mph 1013.4mb 56f
Thu 05/25 11:00pm 5 5 mph 1013.3mb 56f
10:00pm 3 6 mph 1012.8mb 55f
9:00pm 6 8 mph 1012.1mb 55f
8:00pm 7 9 mph 1011.5mb 55f
7:00pm 6 9 mph 1011.1mb 56f
6:00pm 13 15 mph 1011mb 56f
5:00pm 13 16 mph 1011.1mb 55f